sensor_id;sensor_type;location;lat;lon;timestamp;P1;durP1;ratioP1;P2;durP2;ratioP2
1204;SDS011;592;48.764;9.174;2023-05-23T00:01:04;39.13;;;31.00;;
1204;SDS011;592;48.764;9.174;2023-05-23T00:03:36;47.40;;;35.63;;
1204;SDS011;592;48.764;9.174;2023-05-23T00:06:04;47.20;;;36.70;;
1204;SDS011;592;48.764;9.174;2023-05-23T00:08:31;47.50;;;34.43;;
1204;SDS011;592;48.764;9.174;2023-05-23T00:10:59;50.10;;;34.33;;
1204;SDS011;592;48.764;9.174;2023-05-23T00:13:25;50.87;;;36.37;;
1204;SDS011;592;48.764;9.174;2023-05-23T00:15:52;56.67;;;38.80;;
1204;SDS011;592;48.764;9.174;2023-05-23T00:18:19;65.73;;;40.50;;
1204;SDS011;592;48.764;9.174;2023-05-23T00:20:50;50.90;;;36.50;;
1204;SDS011;592;48.764;9.174;2023-05-23T00:23:17;54.97;;;38.80;;
1204;SDS011;592;48.764;9.174;2023-05-23T00:25:46;51.63;;;36.37;;
1204;SDS011;592;48.764;9.174;2023-05-23T00:28:16;58.37;;;40.73;;
1204;SDS011;592;48.764;9.174;2023-05-23T00:30:43;53.13;;;39.30;;
1204;SDS011;592;48.764;9.174;2023-05-23T00:33:10;55.30;;;42.23;;
1204;SDS011;592;48.764;9.174;2023-05-23T00:35:39;61.70;;;44.17;;
1204;SDS011;592;48.764;9.174;2023-05-23T00:38:08;60.93;;;43.40;;
1204;SDS011;592;48.764;9.174;2023-05-23T00:40:35;57.37;;;41.47;;
1204;SDS011;592;48.764;9.174;2023-05-23T00:43:02;65.97;;;42.93;;
1204;SDS011;592;48.764;9.174;2023-05-23T00:45:29;59.73;;;42.97;;
1204;SDS011;592;48.764;9.174;2023-05-23T00:47:56;66.87;;;47.03;;
1204;SDS011;592;48.764;9.174;2023-05-23T00:50:25;61.27;;;42.30;;
1204;SDS011;592;48.764;9.174;2023-05-23T00:52:54;63.43;;;46.03;;
1204;SDS011;592;48.764;9.174;2023-05-23T00:55:26;68.87;;;47.07;;
1204;SDS011;592;48.764;9.174;2023-05-23T00:57:55;69.77;;;45.73;;
1204;SDS011;592;48.764;9.174;2023-05-23T01:00:22;68.10;;;45.90;;
1204;SDS011;592;48.764;9.174;2023-05-23T01:02:53;71.80;;;49.27;;
1204;SDS011;592;48.764;9.174;2023-05-23T01:05:20;59.93;;;42.63;;
1204;SDS011;592;48.764;9.174;2023-05-23T01:07:49;74.40;;;47.93;;
1204;SDS011;592;48.764;9.174;2023-05-23T01:10:18;71.17;;;48.83;;
1204;SDS011;592;48.764;9.174;2023-05-23T01:12:50;72.03;;;49.80;;
1204;SDS011;592;48.764;9.174;2023-05-23T01:15:24;77.37;;;49.37;;
1204;SDS011;592;48.764;9.174;2023-05-23T01:17:58;72.10;;;50.40;;
1204;SDS011;592;48.764;9.174;2023-05-23T01:20:29;65.83;;;46.70;;
1204;SDS011;592;48.764;9.174;2023-05-23T01:23:12;69.70;;;50.13;;
1204;SDS011;592;48.764;9.174;2023-05-23T01:25:56;76.73;;;50.50;;
1204;SDS011;592;48.764;9.174;2023-05-23T01:28:42;72.93;;;49.80;;
1204;SDS011;592;48.764;9.174;2023-05-23T01:31:12;77.43;;;50.37;;
1204;SDS011;592;48.764;9.174;2023-05-23T01:33:42;73.27;;;49.33;;
1204;SDS011;592;48.764;9.174;2023-05-23T01:36:10;73.97;;;52.67;;
1204;SDS011;592;48.764;9.174;2023-05-23T01:38:38;84.10;;;52.37;;
1204;SDS011;592;48.764;9.174;2023-05-23T01:41:05;81.70;;;54.90;;
1204;SDS011;592;48.764;9.174;2023-05-23T01:43:33;80.40;;;53.47;;
1204;SDS011;592;48.764;9.174;2023-05-23T01:46:01;73.63;;;52.23;;
1204;SDS011;592;48.764;9.174;2023-05-23T01:48:32;77.77;;;52.83;;
1204;SDS011;592;48.764;9.174;2023-05-23T01:50:59;81.27;;;51.93;;
1204;SDS011;592;48.764;9.174;2023-05-23T01:53:27;86.87;;;55.20;;
1204;SDS011;592;48.764;9.174;2023-05-23T01:55:59;81.37;;;53.87;;
1204;SDS011;592;48.764;9.174;2023-05-23T01:58:28;76.33;;;52.53;;
1204;SDS011;592;48.764;9.174;2023-05-23T02:00:58;81.80;;;55.60;;
1204;SDS011;592;48.764;9.174;2023-05-23T02:03:27;69.93;;;51.40;;
1204;SDS011;592;48.764;9.174;2023-05-23T02:05:54;75.57;;;52.70;;
1204;SDS011;592;48.764;9.174;2023-05-23T02:08:21;88.50;;;57.70;;
1204;SDS011;592;48.764;9.174;2023-05-23T02:10:53;85.03;;;56.07;;
1204;SDS011;592;48.764;9.174;2023-05-23T02:13:20;83.70;;;55.80;;
1204;SDS011;592;48.764;9.174;2023-05-23T02:15:47;75.83;;;54.40;;
1204;SDS011;592;48.764;9.174;2023-05-23T02:21:10;81.57;;;55.63;;
1204;SDS011;592;48.764;9.174;2023-05-23T02:23:39;75.43;;;51.03;;
1204;SDS011;592;48.764;9.174;2023-05-23T02:26:09;79.20;;;55.30;;
1204;SDS011;592;48.764;9.174;2023-05-23T02:28:38;76.30;;;52.73;;
1204;SDS011;592;48.764;9.174;2023-05-23T02:31:06;74.47;;;54.50;;
1204;SDS011;592;48.764;9.174;2023-05-23T02:33:38;81.57;;;54.73;;
1204;SDS011;592;48.764;9.174;2023-05-23T02:36:13;81.97;;;56.03;;
1204;SDS011;592;48.764;9.174;2023-05-23T02:38:43;75.00;;;53.90;;
1204;SDS011;592;48.764;9.174;2023-05-23T02:41:16;83.87;;;58.67;;
1204;SDS011;592;48.764;9.174;2023-05-23T02:43:46;75.90;;;55.23;;
1204;SDS011;592;48.764;9.174;2023-05-23T02:46:16;82.77;;;57.10;;
1204;SDS011;592;48.764;9.174;2023-05-23T02:48:44;76.47;;;53.67;;
1204;SDS011;592;48.764;9.174;2023-05-23T02:51:15;79.57;;;57.40;;
1204;SDS011;592;48.764;9.174;2023-05-23T02:53:47;81.43;;;56.33;;
1204;SDS011;592;48.764;9.174;2023-05-23T02:56:17;82.93;;;56.37;;
1204;SDS011;592;48.764;9.174;2023-05-23T02:58:54;77.20;;;53.57;;
1204;SDS011;592;48.764;9.174;2023-05-23T03:01:24;79.20;;;55.57;;
1204;SDS011;592;48.764;9.174;2023-05-23T03:03:52;80.73;;;57.93;;
1204;SDS011;592;48.764;9.174;2023-05-23T03:09:21;79.73;;;55.90;;
1204;SDS011;592;48.764;9.174;2023-05-23T03:11:52;76.67;;;54.87;;
1204;SDS011;592;48.764;9.174;2023-05-23T03:14:21;81.03;;;57.60;;
1204;SDS011;592;48.764;9.174;2023-05-23T03:17:02;77.40;;;53.03;;
1204;SDS011;592;48.764;9.174;2023-05-23T03:19:31;77.97;;;54.97;;
1204;SDS011;592;48.764;9.174;2023-05-23T03:22:00;75.60;;;55.20;;
1204;SDS011;592;48.764;9.174;2023-05-23T03:24:31;68.30;;;51.50;;
1204;SDS011;592;48.764;9.174;2023-05-23T03:27:00;81.40;;;56.10;;
1204;SDS011;592;48.764;9.174;2023-05-23T03:29:33;76.90;;;55.13;;
1204;SDS011;592;48.764;9.174;2023-05-23T03:31:59;72.40;;;53.40;;
1204;SDS011;592;48.764;9.174;2023-05-23T03:34:42;71.87;;;53.83;;
1204;SDS011;592;48.764;9.174;2023-05-23T03:39:57;77.43;;;53.47;;
1204;SDS011;592;48.764;9.174;2023-05-23T03:42:32;73.10;;;53.87;;
1204;SDS011;592;48.764;9.174;2023-05-23T03:45:04;66.07;;;51.63;;
1204;SDS011;592;48.764;9.174;2023-05-23T03:47:35;70.83;;;54.27;;
1204;SDS011;592;48.764;9.174;2023-05-23T03:50:02;70.10;;;54.20;;
1204;SDS011;592;48.764;9.174;2023-05-23T03:55:17;71.90;;;53.83;;
1204;SDS011;592;48.764;9.174;2023-05-23T03:57:48;68.03;;;50.60;;
1204;SDS011;592;48.764;9.174;2023-05-23T04:00:16;72.40;;;53.77;;
1204;SDS011;592;48.764;9.174;2023-05-23T04:02:59;70.83;;;53.50;;
1204;SDS011;592;48.764;9.174;2023-05-23T04:05:30;67.90;;;52.33;;
1204;SDS011;592;48.764;9.174;2023-05-23T04:08:02;70.63;;;51.70;;
1204;SDS011;592;48.764;9.174;2023-05-23T04:10:33;70.67;;;52.17;;
1204;SDS011;592;48.764;9.174;2023-05-23T04:13:03;73.37;;;51.63;;
1204;SDS011;592;48.764;9.174;2023-05-23T04:15:33;68.00;;;50.70;;
1204;SDS011;592;48.764;9.174;2023-05-23T04:18:01;72.80;;;53.60;;
1204;SDS011;592;48.764;9.174;2023-05-23T04:20:33;66.10;;;52.57;;
1204;SDS011;592;48.764;9.174;2023-05-23T04:23:00;65.13;;;50.83;;
1204;SDS011;592;48.764;9.174;2023-05-23T04:25:30;64.47;;;49.80;;
1204;SDS011;592;48.764;9.174;2023-05-23T04:28:00;67.37;;;50.90;;
1204;SDS011;592;48.764;9.174;2023-05-23T04:30:30;63.30;;;47.70;;
1204;SDS011;592;48.764;9.174;2023-05-23T04:33:01;63.47;;;48.10;;
1204;SDS011;592;48.764;9.174;2023-05-23T04:35:32;63.70;;;48.90;;
1204;SDS011;592;48.764;9.174;2023-05-23T04:38:02;62.43;;;52.40;;
1204;SDS011;592;48.764;9.174;2023-05-23T04:40:31;67.77;;;51.37;;
1204;SDS011;592;48.764;9.174;2023-05-23T04:42:58;65.93;;;47.67;;
1204;SDS011;592;48.764;9.174;2023-05-23T04:45:28;59.70;;;47.90;;
1204;SDS011;592;48.764;9.174;2023-05-23T04:47:57;65.83;;;49.87;;
1204;SDS011;592;48.764;9.174;2023-05-23T04:50:24;65.70;;;49.87;;
1204;SDS011;592;48.764;9.174;2023-05-23T04:53:09;61.80;;;49.00;;
1204;SDS011;592;48.764;9.174;2023-05-23T04:55:50;56.87;;;46.10;;
1204;SDS011;592;48.764;9.174;2023-05-23T04:59:10;65.80;;;49.40;;
1204;SDS011;592;48.764;9.174;2023-05-23T05:01:55;63.43;;;49.50;;
1204;SDS011;592;48.764;9.174;2023-05-23T05:04:25;60.20;;;47.80;;
1204;SDS011;592;48.764;9.174;2023-05-23T05:06:52;62.67;;;50.80;;
1204;SDS011;592;48.764;9.174;2023-05-23T05:09:21;59.00;;;46.97;;
1204;SDS011;592;48.764;9.174;2023-05-23T05:11:57;61.57;;;48.50;;
1204;SDS011;592;48.764;9.174;2023-05-23T05:14:25;61.97;;;48.50;;
1204;SDS011;592;48.764;9.174;2023-05-23T05:17:01;59.43;;;47.60;;
1204;SDS011;592;48.764;9.174;2023-05-23T05:24:47;59.87;;;47.43;;
1204;SDS011;592;48.764;9.174;2023-05-23T05:34:11;57.83;;;46.70;;
1204;SDS011;592;48.764;9.174;2023-05-23T05:37:19;56.13;;;45.20;;
1204;SDS011;592;48.764;9.174;2023-05-23T05:39:57;67.60;;;49.13;;
1204;SDS011;592;48.764;9.174;2023-05-23T05:43:02;63.27;;;50.50;;
1204;SDS011;592;48.764;9.174;2023-05-23T06:14:34;61.97;;;50.37;;
1204;SDS011;592;48.764;9.174;2023-05-23T06:27:23;66.60;;;51.17;;
1204;SDS011;592;48.764;9.174;2023-05-23T06:40:17;60.53;;;50.77;;
1204;SDS011;592;48.764;9.174;2023-05-23T06:42:48;63.90;;;50.30;;
1204;SDS011;592;48.764;9.174;2023-05-23T20:56:46;8.23;;;6.60;;
1204;SDS011;592;48.764;9.174;2023-05-23T20:59:13;9.70;;;6.80;;
1204;SDS011;592;48.764;9.174;2023-05-23T21:01:40;7.77;;;6.60;;
1204;SDS011;592;48.764;9.174;2023-05-23T21:04:07;7.90;;;5.63;;
1204;SDS011;592;48.764;9.174;2023-05-23T21:06:34;8.17;;;6.20;;
1204;SDS011;592;48.764;9.174;2023-05-23T21:09:06;7.07;;;5.70;;
1204;SDS011;592;48.764;9.174;2023-05-23T21:11:42;7.43;;;5.77;;
